»·PEaware :: N739HH KAJO-KVCV

N739HH :: KAJO-KVCV

FLIGHT INFORMATION

Flight Status: Arrived
Operator: Privately registered:
United States
More flights under this callsign
Pilot: Andrew J. (13363)
Aircraft: Unknown
(P28U)
More flights by this aircraft type
Origin: KAJO Corona Mun
United States
Destination: KVCV Socal Logistics
United States
More flights between these airports :: More routes between these airports
Route: +PDZ V442 APLES
File this flight plan on PilotEdge
Remarks: FIFE TRREEEEEE
Altitude:
(Current/Filed)
9,000ft
Speed:
(Current/Filed)
170kts
Departed: 15-Jan-18 11:34 PM
Arrived: 16-Jan-18 12:13 AM
Distance/Time
Traveled:
44nm/0:39
Distance/Time
To Go:
Arrived

Flight Plot

Page will automatically refresh every two minutes.


Map Options




Map Legend


Flown Route
Filed Route
Departure Airport
Arrival Airport
Navaid (VOR, NDB)
Fix

Horizontal Profiles

Position Reports

Time Latitude Longitude Heading Altitude Ground
Speed
15-Jan-18 23:26 33.896737 -117.597528 90 530ft 0kts
15-Jan-18 23:27 33.896737 -117.597528 90 530ft 0kts
15-Jan-18 23:28 33.896737 -117.597528 90 530ft 0kts
15-Jan-18 23:29 33.897178 -117.597312 16 530ft 0kts
15-Jan-18 23:30 33.897178 -117.597312 16 530ft 0kts
15-Jan-18 23:31 33.897178 -117.597312 16 530ft 0kts
15-Jan-18 23:32 33.897178 -117.597312 16 530ft 0kts
15-Jan-18 23:33 33.897178 -117.597312 16 530ft 0kts
15-Jan-18 23:34 33.897178 -117.597312 16 530ft 0kts
15-Jan-18 23:35 33.897178 -117.597312 16 530ft 0kts
15-Jan-18 23:36 33.897178 -117.597312 16 530ft 0kts
15-Jan-18 23:37 33.897178 -117.597312 17 530ft 0kts
15-Jan-18 23:38 33.897230 -117.597290 12 530ft 0kts
15-Jan-18 23:39 33.897738 -117.597800 271 530ft 19kts
15-Jan-18 23:40 33.903635 -117.598585 80 1555ft 82kts
15-Jan-18 23:41 33.908702 -117.572985 78 3129ft 79kts
15-Jan-18 23:42 33.913051 -117.546286 72 4702ft 84kts
15-Jan-18 23:43 33.924193 -117.522823 44 6222ft 85kts
15-Jan-18 23:44 33.914382 -117.509481 182 7695ft 77kts
15-Jan-18 23:45 33.913427 -117.491923 26 9159ft 72kts
15-Jan-18 23:46 33.940782 -117.470382 29 9004ft 145kts
15-Jan-18 23:47 33.976170 -117.441459 29 8988ft 162kts
15-Jan-18 23:48 34.013405 -117.411256 29 8988ft 163kts
15-Jan-18 23:49 34.051656 -117.382417 29 9013ft 163kts
15-Jan-18 23:50 34.086072 -117.354651 29 9015ft 163kts
15-Jan-18 23:51 34.124088 -117.327947 29 9015ft 166kts
15-Jan-18 23:52 34.164090 -117.310196 0 9015ft 166kts
15-Jan-18 23:53 34.209405 -117.310828 359 9025ft 166kts
15-Jan-18 23:54 34.255806 -117.311599 359 9042ft 169kts
15-Jan-18 23:55 34.302995 -117.312462 359 8996ft 169kts
15-Jan-18 23:56 34.346632 -117.298726 34 8996ft 169kts
15-Jan-18 23:57 34.386406 -117.268778 31 8996ft 169kts
15-Jan-18 23:58 34.426886 -117.239988 31 8996ft 169kts
15-Jan-18 23:59 34.467035 -117.210508 31 8996ft 169kts
16-Jan-18 00:00 34.507343 -117.180835 31 8996ft 171kts
16-Jan-18 00:01 34.547883 -117.151008 28 8994ft 171kts
16-Jan-18 00:02 34.595550 -117.143625 359 8815ft 176kts
16-Jan-18 00:03 34.643546 -117.151016 345 8622ft 174kts
16-Jan-18 00:04 34.688113 -117.171616 332 8111ft 176kts
16-Jan-18 00:05 34.728169 -117.205070 318 7573ft 175kts
16-Jan-18 00:06 34.760316 -117.248842 305 7082ft 174kts
16-Jan-18 00:07 34.782971 -117.300452 291 6623ft 173kts
16-Jan-18 00:08 34.794881 -117.356241 277 6201ft 172kts
16-Jan-18 00:09 34.768502 -117.380558 160 5064ft 171kts
16-Jan-18 00:10 34.724202 -117.378847 183 4848ft 158kts
16-Jan-18 00:11 34.683083 -117.382394 185 4060ft 146kts
16-Jan-18 00:12 34.644773 -117.385827 184 3249ft 104kts
16-Jan-18 00:13 34.619479 -117.386782 178 3153ft 109kts
16-Jan-18 00:14 34.610906 -117.406724 305 4774ft 105kts
16-Jan-18 00:15 34.621177 -117.437292 279 6283ft 105kts
16-Jan-18 00:16 34.638348 -117.439737 96 6263ft 90kts
16-Jan-18 00:17 34.636120 -117.411741 97 4939ft 72kts
16-Jan-18 00:18 34.628953 -117.390188 144 3577ft 70kts
16-Jan-18 00:19 34.616050 -117.385441 88 2816ft 17kts
16-Jan-18 00:20 34.614009 -117.382852 130 2821ft 8kts
16-Jan-18 00:21 34.613512 -117.382653 183 2822ft 0kts
16-Jan-18 00:22 34.613512 -117.382653 183 2822ft 0kts
16-Jan-18 00:23 34.613512 -117.382653 183 2822ft 0kts
16-Jan-18 00:24 34.613512 -117.382653 183 2822ft 0kts
16-Jan-18 00:25 34.613512 -117.382653 183 2822ft 0kts

Navigation Log

Ident Type
1. KAJO Airport
2. PDZ Navaid
3. APLES Fix
4. KVCV Airport